createdAt,value
2022-09-28T00:00:00.356Z,971.1294
2022-09-28T00:01:00.495Z,971.093
2022-09-28T00:02:00.793Z,971.161
2022-09-28T00:03:00.928Z,971.1166
2022-09-28T00:04:00.952Z,971.0121
2022-09-28T00:05:01.107Z,970.8934
2022-09-28T00:06:01.261Z,971.0469
2022-09-28T00:07:00.386Z,971.1736
2022-09-28T00:08:00.568Z,971.1934
2022-09-28T00:09:00.689Z,970.9938
2022-09-28T00:10:00.841Z,971.0919
2022-09-28T00:11:00.991Z,971.0982
2022-09-28T00:12:01.136Z,971.0349
2022-09-28T00:13:00.304Z,971.1078
2022-09-28T00:14:00.441Z,970.9938
2022-09-28T00:15:00.584Z,971.0508
2022-09-28T00:16:00.784Z,971.0982
2022-09-28T00:17:00.899Z,970.962
2022-09-28T00:18:01.063Z,971.2186
2022-09-28T00:19:01.183Z,971.1268
2022-09-28T00:20:00.347Z,971.0982
2022-09-28T00:21:00.496Z,971.0064
2022-09-28T00:22:00.656Z,971.0412
2022-09-28T00:23:00.817Z,970.9842
2022-09-28T00:24:00.949Z,971.1331
2022-09-28T00:25:01.103Z,971.118
2022-09-28T00:26:01.245Z,971.2035
2022-09-28T00:27:00.394Z,971.0602
2022-09-28T00:28:00.558Z,971.0736
2022-09-28T00:29:00.711Z,971.03
2022-09-28T00:30:00.841Z,971.1504
2022-09-28T00:31:00.986Z,971.0363
2022-09-28T00:32:01.226Z,971.1219
2022-09-28T00:33:00.282Z,971.1756
2022-09-28T00:34:00.451Z,971.1756
2022-09-28T00:35:00.591Z,971.0031
2022-09-28T00:36:00.729Z,971.0602
2022-09-28T00:37:00.891Z,970.9595
2022-09-28T00:38:01.031Z,971.0166
2022-09-28T00:39:01.194Z,971.1457
2022-09-28T00:40:00.323Z,971.2645
2022-09-28T00:41:00.537Z,971.2042
2022-09-28T00:42:00.630Z,971.0616
2022-09-28T00:43:00.790Z,971.033
2022-09-28T00:44:00.949Z,970.9475
2022-09-28T00:45:01.084Z,971.2105
2022-09-28T00:46:01.311Z,970.9039
2022-09-28T00:47:00.371Z,970.976
2022-09-28T00:48:00.519Z,971.0108
2022-09-28T00:49:00.693Z,971.1312
2022-09-28T00:50:00.829Z,970.9324
2022-09-28T00:51:00.981Z,970.9475
2022-09-28T00:52:01.135Z,970.8968
2022-09-28T00:53:00.270Z,970.9316
2022-09-28T00:54:00.423Z,970.9894
2022-09-28T00:55:00.553Z,970.9253
2022-09-28T00:56:00.716Z,971.0813
2022-09-28T00:57:00.852Z,971.1312
2022-09-28T00:58:00.998Z,970.9316
2022-09-28T00:59:01.165Z,970.9601
2022-09-28T01:00:00.280Z,971.0679
2022-09-28T01:01:00.544Z,971.0457
2022-09-28T01:02:00.621Z,971.0369
2022-09-28T01:03:00.723Z,970.9576
2022-09-28T01:04:00.901Z,970.9354
2022-09-28T01:05:01.018Z,970.9006
2022-09-28T01:06:01.164Z,970.888
2022-09-28T01:07:00.308Z,970.9387
2022-09-28T01:08:00.453Z,970.9228
2022-09-28T01:09:00.621Z,970.9925
2022-09-28T01:10:00.770Z,970.8935
2022-09-28T01:11:00.908Z,970.8246
2022-09-28T01:12:01.067Z,970.9031
2022-09-28T01:13:01.221Z,970.8658
2022-09-28T01:14:00.383Z,970.9354
2022-09-28T01:15:00.530Z,970.9006
2022-09-28T01:16:00.742Z,970.8658
2022-09-28T01:17:00.810Z,970.9228
2022-09-28T01:18:00.952Z,970.9354
2022-09-28T01:19:01.115Z,971.0051
2022-09-28T01:20:01.265Z,970.7769
2022-09-28T01:21:00.389Z,971.0051
2022-09-28T01:22:00.545Z,970.9006
2022-09-28T01:23:00.699Z,970.888
2022-09-28T01:24:00.855Z,970.9006
2022-09-28T01:25:01.034Z,970.9354
2022-09-28T01:26:01.164Z,970.8658
2022-09-28T01:27:00.315Z,970.8745
2022-09-28T01:28:00.453Z,970.8246
2022-09-28T01:29:00.596Z,970.7961
2022-09-28T01:30:00.733Z,970.789
2022-09-28T01:31:00.884Z,970.7542
2022-09-28T01:32:01.106Z,970.7898
2022-09-28T01:33:01.192Z,970.5616
2022-09-28T01:34:00.317Z,970.5394
2022-09-28T01:35:00.466Z,970.4887
2022-09-28T01:36:00.603Z,970.5394
2022-09-28T01:37:00.748Z,970.7193
2022-09-28T01:38:00.920Z,970.5545
2022-09-28T01:39:01.041Z,970.4761
2022-09-28T01:40:01.196Z,970.495
2022-09-28T01:41:00.384Z,970.5512
2022-09-28T01:42:00.489Z,970.3686
2022-09-28T01:43:00.678Z,970.4035
2022-09-28T01:44:00.796Z,970.4601
2022-09-28T01:45:00.939Z,970.4752
2022-09-28T01:46:01.121Z,970.2445
2022-09-28T01:47:01.236Z,970.3871
2022-09-28T01:48:00.409Z,970.4626
2022-09-28T01:49:00.535Z,970.3586
2022-09-28T01:50:00.693Z,970.2193
2022-09-28T01:51:00.833Z,970.4962
2022-09-28T01:52:00.983Z,970.2147
2022-09-28T01:53:01.160Z,970.3669
2022-09-28T01:54:00.276Z,970.3669
2022-09-28T01:55:00.433Z,970.3196
2022-09-28T01:56:00.589Z,970.2143
2022-09-28T01:57:00.743Z,970.4806
2022-09-28T01:58:00.918Z,970.2999
2022-09-28T01:59:01.055Z,970.1929
2022-09-28T02:00:01.186Z,970.3418
2022-09-28T02:01:00.380Z,970.1447
2022-09-28T02:02:00.542Z,970.2659
2022-09-28T02:03:00.660Z,970.1955
2022-09-28T02:04:00.781Z,970.2567
2022-09-28T02:05:00.921Z,970.1871
2022-09-28T02:06:01.066Z,970.2814
2022-09-28T02:07:01.226Z,970.1452
2022-09-28T02:08:00.389Z,970.2567
2022-09-28T02:09:00.516Z,970.1934
2022-09-28T02:10:00.663Z,970.1427
2022-09-28T02:11:00.811Z,970.1301
2022-09-28T02:12:00.956Z,970.1301
2022-09-28T02:13:01.132Z,970.1301
2022-09-28T02:14:01.258Z,970.0731
2022-09-28T02:15:00.401Z,970.0509
2022-09-28T02:16:00.598Z,970.1016
2022-09-28T02:17:00.688Z,969.9169
2022-09-28T02:18:00.868Z,969.9876
2022-09-28T02:19:00.988Z,969.8687
2022-09-28T02:20:01.129Z,969.9876
2022-09-28T02:21:00.281Z,969.8339
2022-09-28T02:22:00.415Z,969.7573
2022-09-28T02:23:00.589Z,969.8302
2022-09-28T02:24:00.725Z,969.9094
2022-09-28T02:25:00.878Z,969.7955
2022-09-28T02:26:01.032Z,969.7955
2022-09-28T02:27:01.167Z,969.7892
2022-09-28T02:28:00.341Z,969.7892
2022-09-28T02:29:00.457Z,969.6333
2022-09-28T02:30:00.604Z,969.8336
2022-09-28T02:31:00.747Z,969.8336
2022-09-28T02:32:00.901Z,969.9191
2022-09-28T02:33:01.066Z,969.9676
2022-09-28T02:34:01.206Z,969.8584
2022-09-28T02:35:00.345Z,969.8966
2022-09-28T02:36:00.488Z,969.9339
2022-09-28T02:37:00.634Z,970.1114
2022-09-28T02:38:00.791Z,970.1495
2022-09-28T02:39:00.958Z,970.0356
2022-09-28T02:40:01.086Z,970.0791
2022-09-28T02:41:01.338Z,970.2002
2022-09-28T02:42:00.371Z,970.1558
2022-09-28T02:43:00.518Z,970.0766
2022-09-28T02:44:00.699Z,970.033
2022-09-28T02:45:00.852Z,970.0171
2022-09-28T02:46:01.041Z,970.0741
2022-09-28T02:47:01.122Z,970.188
2022-09-28T02:48:00.263Z,970.131
2022-09-28T02:49:17.301Z,970.1532
2022-09-28T02:50:00.590Z,970.1185
2022-09-28T02:51:00.744Z,970.1532
2022-09-28T02:52:00.880Z,970.0418
2022-09-28T02:53:01.022Z,970.08
2022-09-28T02:54:01.154Z,970.0612
2022-09-28T02:55:00.332Z,969.9272
2022-09-28T02:56:00.455Z,969.9988
2022-09-28T02:57:00.594Z,969.8418
2022-09-28T02:58:00.739Z,969.8205
2022-09-28T02:59:00.894Z,969.8321
2022-09-28T03:00:01.053Z,969.7752
2022-09-28T03:01:01.239Z,969.8954
2022-09-28T03:02:00.409Z,969.7974
2022-09-28T03:03:00.470Z,969.6496
2022-09-28T03:04:00.624Z,969.7635
2022-09-28T03:05:00.782Z,969.5642
2022-09-28T03:06:00.910Z,969.6994
2022-09-28T03:07:01.067Z,969.5294
2022-09-28T03:08:01.220Z,969.5952
2022-09-28T03:09:00.361Z,969.5605
2022-09-28T03:10:00.521Z,969.6744
2022-09-28T03:11:00.660Z,969.7091
2022-09-28T03:12:00.800Z,969.6869
2022-09-28T03:13:00.948Z,969.5445
2022-09-28T03:14:01.093Z,969.6994
2022-09-28T03:15:01.262Z,969.6015
2022-09-28T03:16:00.427Z,969.4306
2022-09-28T03:17:00.528Z,969.7251
2022-09-28T03:18:00.663Z,969.6744
2022-09-28T03:19:00.819Z,969.6744
2022-09-28T03:20:00.984Z,969.6174
2022-09-28T03:21:01.125Z,969.6966
2022-09-28T03:22:00.273Z,969.6841
2022-09-28T03:23:23.362Z,969.7979
2022-09-28T03:24:00.570Z,969.7854
2022-09-28T03:25:00.714Z,969.8423
2022-09-28T03:26:00.878Z,969.7569
2022-09-28T03:27:01.054Z,969.5531
2022-09-28T03:28:01.195Z,969.803
2022-09-28T03:29:00.320Z,969.6732
2022-09-28T03:30:00.465Z,969.6146
2022-09-28T03:31:00.619Z,969.7063
2022-09-28T03:32:00.769Z,969.5354
2022-09-28T03:33:00.909Z,969.5132
2022-09-28T03:34:01.067Z,969.6049
2022-09-28T03:35:01.179Z,969.532
2022-09-28T03:36:00.329Z,969.5605
2022-09-28T03:37:00.482Z,969.5605
2022-09-28T03:38:00.635Z,969.4278
2022-09-28T03:39:00.774Z,969.3834
2022-09-28T03:40:00.910Z,969.5035
2022-09-28T03:41:01.138Z,969.5605
2022-09-28T03:42:01.208Z,969.4751
2022-09-28T03:43:00.376Z,969.3709
2022-09-28T03:44:00.496Z,969.4848
2022-09-28T03:45:00.650Z,969.3014
2022-09-28T03:46:00.903Z,969.3709
2022-09-28T03:47:00.952Z,969.3709
2022-09-28T03:48:01.108Z,969.4341
2022-09-28T03:49:01.243Z,969.4848
2022-09-28T03:50:00.393Z,969.3139
2022-09-28T03:51:00.533Z,969.4688
2022-09-28T03:52:00.691Z,969.1903
2022-09-28T03:53:00.852Z,969.3612
2022-09-28T03:54:00.974Z,969.282
2022-09-28T03:55:01.129Z,969.2028
2022-09-28T03:56:00.272Z,969.2447
2022-09-28T03:57:00.407Z,969.1681
2022-09-28T03:58:00.577Z,969.2313
2022-09-28T03:59:00.723Z,969.1903
2022-09-28T04:00:00.883Z,969.0987
2022-09-28T04:01:01.090Z,969.257
2022-09-28T04:02:01.233Z,969.1306
2022-09-28T04:03:00.301Z,969.1146
2022-09-28T04:04:00.467Z,969.0292
2022-09-28T04:05:00.615Z,969.0292
2022-09-28T04:06:00.764Z,969.1306
2022-09-28T04:07:00.899Z,969.1084
2022-09-28T04:08:01.038Z,968.9598
2022-09-28T04:09:01.190Z,969.0737
2022-09-28T04:10:00.363Z,968.9153
2022-09-28T04:11:00.494Z,968.9945
2022-09-28T04:12:04.215Z,968.9598
2022-09-28T04:13:00.773Z,968.8237
2022-09-28T04:14:00.931Z,968.789
2022-09-28T04:15:01.081Z,969.0292
2022-09-28T04:16:01.271Z,968.9598
2022-09-28T04:17:00.358Z,968.8112
2022-09-28T04:18:00.509Z,968.7124
2022-09-28T04:19:00.675Z,968.732
2022-09-28T04:20:00.807Z,968.6566
2022-09-28T04:21:00.961Z,968.6851
2022-09-28T04:22:01.096Z,968.6281
2022-09-28T04:23:01.242Z,968.6691
2022-09-28T04:24:00.406Z,968.7445
2022-09-28T04:25:00.543Z,968.6629
2022-09-28T04:26:00.703Z,968.6281
2022-09-28T04:27:00.859Z,968.6566
2022-09-28T04:28:01.013Z,968.7409
2022-09-28T04:29:06.178Z,968.732
2022-09-28T04:30:00.282Z,968.7445
2022-09-28T04:31:00.441Z,968.6281
2022-09-28T04:32:00.639Z,968.7667
2022-09-28T04:33:00.734Z,968.6976
2022-09-28T04:34:00.899Z,968.6121
2022-09-28T04:35:01.033Z,968.6976
2022-09-28T04:36:01.184Z,968.6878
2022-09-28T04:37:00.328Z,968.6878
2022-09-28T04:38:00.483Z,968.6878
2022-09-28T04:39:00.640Z,968.7757
2022-09-28T04:40:00.774Z,968.5294
2022-09-28T04:41:01.015Z,968.6273
2022-09-28T04:42:01.075Z,968.8166
2022-09-28T04:43:01.205Z,968.5009
2022-09-28T04:44:00.369Z,968.4511
2022-09-28T04:45:00.531Z,968.5864
2022-09-28T04:46:00.701Z,968.5009
2022-09-28T04:47:05.012Z,968.4947
2022-09-28T04:48:00.959Z,968.3808
2022-09-28T04:49:01.117Z,968.5081
2022-09-28T04:50:00.273Z,968.5365
2022-09-28T04:51:00.407Z,968.4564
2022-09-28T04:52:00.547Z,968.5365
2022-09-28T04:53:00.690Z,968.3942
2022-09-28T04:54:00.848Z,968.5009
2022-09-28T04:55:01.025Z,968.3968
2022-09-28T04:56:01.152Z,968.3337
2022-09-28T04:57:00.298Z,968.3212
2022-09-28T04:58:00.439Z,968.5143
2022-09-28T04:59:00.602Z,968.4796
2022-09-28T05:00:00.750Z,968.315
2022-09-28T05:01:00.980Z,968.3781
2022-09-28T05:02:01.147Z,968.3435
2022-09-28T05:03:01.198Z,968.5143
2022-09-28T05:04:00.356Z,968.2865
2022-09-28T05:05:00.497Z,968.1566
2022-09-28T05:06:00.696Z,968.1566
2022-09-28T05:07:00.790Z,968.3399
2022-09-28T05:08:00.936Z,968.169
2022-09-28T05:09:01.087Z,968.0997
2022-09-28T05:10:01.231Z,968.2037
2022-09-28T05:11:00.410Z,967.9537
2022-09-28T05:12:00.529Z,968.0453
2022-09-28T05:13:00.682Z,968.0453
2022-09-28T05:14:00.839Z,967.9822
2022-09-28T05:15:00.994Z,968.0329
2022-09-28T05:16:05.185Z,968.169
2022-09-28T05:17:00.408Z,968.0898
2022-09-28T05:18:00.412Z,968.0329
2022-09-28T05:19:00.572Z,968.0106
2022-09-28T05:20:00.737Z,967.9884
2022-09-28T05:21:00.883Z,967.9314
2022-09-28T05:22:01.034Z,968.0587
2022-09-28T05:23:01.166Z,967.8869
2022-09-28T05:24:00.307Z,967.9314
2022-09-28T05:25:00.453Z,968.0587
2022-09-28T05:26:00.606Z,967.8593
2022-09-28T05:27:00.773Z,967.9439
2022-09-28T05:28:00.898Z,967.8869
2022-09-28T05:29:01.037Z,967.9723
2022-09-28T05:30:01.194Z,968.0008
2022-09-28T05:31:00.344Z,967.8869
2022-09-28T05:32:00.544Z,967.9154
2022-09-28T05:33:00.663Z,967.7801
2022-09-28T05:34:00.799Z,967.9331
2022-09-28T05:35:00.948Z,967.8833
2022-09-28T05:36:01.805Z,968.0034
2022-09-28T05:37:01.247Z,967.8387
2022-09-28T05:38:00.413Z,967.7533
2022-09-28T05:39:00.545Z,967.7657
2022-09-28T05:40:00.686Z,967.6998
2022-09-28T05:41:05.738Z,967.7469
2022-09-28T05:42:00.997Z,967.7665
2022-09-28T05:43:01.146Z,967.8777
2022-09-28T05:44:00.282Z,967.8777
2022-09-28T05:45:00.437Z,967.7068
2022-09-28T05:46:00.717Z,967.8777
2022-09-28T05:47:00.764Z,967.7068
2022-09-28T05:48:00.903Z,967.883
2022-09-28T05:49:01.067Z,967.8109
2022-09-28T05:50:01.186Z,968.029
2022-09-28T05:51:00.330Z,967.7886
2022-09-28T05:52:00.504Z,967.858
2022-09-28T05:53:00.626Z,967.6585
2022-09-28T05:54:05.453Z,967.687
2022-09-28T05:55:00.920Z,967.9346
2022-09-28T05:56:01.063Z,967.6362
2022-09-28T05:57:01.208Z,967.63
2022-09-28T05:58:00.356Z,967.7351
2022-09-28T05:59:00.522Z,967.6496
2022-09-28T06:00:00.679Z,967.858
2022-09-28T06:01:00.856Z,967.7066
2022-09-28T06:02:00.996Z,967.6264
2022-09-28T06:03:03.408Z,967.6406
2022-09-28T06:04:01.253Z,967.6691
2022-09-28T06:05:00.396Z,967.7386
2022-09-28T06:06:00.538Z,967.6236
2022-09-28T06:07:00.686Z,967.5381
2022-09-28T06:08:00.832Z,967.7296
2022-09-28T06:09:01.004Z,967.7055
2022-09-28T06:10:01.123Z,967.6333
2022-09-28T06:11:00.271Z,967.6386
2022-09-28T06:12:00.416Z,967.8292
2022-09-28T06:13:00.586Z,967.5246
2022-09-28T06:14:00.712Z,967.709
2022-09-28T06:15:00.861Z,967.6012
2022-09-28T06:16:01.015Z,967.6867
2022-09-28T06:17:01.220Z,967.6867
2022-09-28T06:18:00.321Z,967.7338
2022-09-28T06:19:00.452Z,967.7276
2022-09-28T06:20:00.588Z,967.7846
2022-09-28T06:21:00.751Z,967.5441
2022-09-28T06:22:00.906Z,967.5628
2022-09-28T06:23:01.062Z,967.4871
2022-09-28T06:24:01.219Z,967.6297
2022-09-28T06:25:00.352Z,967.6582
2022-09-28T06:26:00.493Z,967.8292
2022-09-28T06:27:00.653Z,967.8577
2022-09-28T06:28:00.815Z,967.766
2022-09-28T06:29:00.951Z,967.6457
2022-09-28T06:30:01.092Z,967.7313
2022-09-28T06:31:01.301Z,967.8097
2022-09-28T06:32:00.405Z,967.7526
2022-09-28T06:33:00.577Z,967.5478
2022-09-28T06:34:00.673Z,967.8257
2022-09-28T06:35:00.824Z,967.7687
2022-09-28T06:36:00.974Z,967.8765
2022-09-28T06:37:01.117Z,967.6048
2022-09-28T06:38:00.299Z,967.8667
2022-09-28T06:39:00.431Z,967.8044
2022-09-28T06:40:00.553Z,967.6333
2022-09-28T06:41:00.775Z,967.677
2022-09-28T06:42:00.845Z,967.6147
2022-09-28T06:43:01.001Z,967.7758
2022-09-28T06:44:01.164Z,967.7687
2022-09-28T06:45:00.290Z,967.5915
2022-09-28T06:46:00.539Z,967.5915
2022-09-28T06:47:00.596Z,967.677
2022-09-28T06:48:00.735Z,967.5345
2022-09-28T06:49:00.900Z,967.5862
2022-09-28T06:50:01.023Z,967.5292
2022-09-28T06:51:01.166Z,967.4945
2022-09-28T06:52:00.312Z,967.6023
2022-09-28T06:53:00.467Z,967.4731
2022-09-28T06:54:00.641Z,967.4722
2022-09-28T06:55:00.786Z,967.4437
2022-09-28T06:56:00.937Z,967.6236
2022-09-28T06:57:01.082Z,967.5961
2022-09-28T06:58:01.228Z,967.3903
2022-09-28T06:59:00.397Z,967.5951
2022-09-28T07:00:00.523Z,967.5961
2022-09-28T07:01:00.757Z,967.4269
2022-09-28T07:02:00.898Z,967.5266
2022-09-28T07:03:00.951Z,967.4473
2022-09-28T07:04:01.136Z,967.6308
2022-09-28T07:05:01.254Z,967.5381
2022-09-28T07:06:00.391Z,967.3956
2022-09-28T07:07:00.551Z,967.4446
2022-09-28T07:08:00.694Z,967.5666
2022-09-28T07:09:24.146Z,967.539
2022-09-28T07:10:00.986Z,967.3956
2022-09-28T07:11:01.128Z,967.539
2022-09-28T07:12:00.272Z,967.425
2022-09-28T07:13:00.387Z,967.2616
2022-09-28T07:14:00.562Z,967.3676
2022-09-28T07:15:00.697Z,967.3283
2022-09-28T07:16:00.844Z,967.4301
2022-09-28T07:17:13.091Z,967.4016
2022-09-28T07:18:03.823Z,967.4772
2022-09-28T07:19:00.304Z,967.2924
2022-09-28T07:20:10.518Z,967.4335
2022-09-28T07:21:00.570Z,967.2763
2022-09-28T07:22:04.412Z,967.5002
2022-09-28T07:23:08.011Z,967.4085
2022-09-28T07:24:01.030Z,967.3662
2022-09-28T07:25:01.183Z,967.334
2022-09-28T07:26:00.305Z,967.411
2022-09-28T07:27:00.451Z,967.4742
2022-09-28T07:28:00.597Z,967.3958
2022-09-28T07:29:00.748Z,967.3949
2022-09-28T07:30:00.920Z,967.4082
2022-09-28T07:31:01.137Z,967.3312
2022-09-28T07:32:01.185Z,967.5285
2022-09-28T07:33:00.362Z,967.4082
2022-09-28T07:34:00.481Z,967.2741
2022-09-28T07:35:00.657Z,967.4938
2022-09-28T07:36:00.790Z,967.2171
2022-09-28T07:37:00.931Z,967.2518
2022-09-28T07:38:01.089Z,967.3949
2022-09-28T07:39:01.226Z,967.2794
2022-09-28T07:40:00.386Z,967.3956
2022-09-28T07:41:00.561Z,967.1883
2022-09-28T07:42:03.055Z,967.4998
2022-09-28T07:43:00.815Z,967.2764
2022-09-28T07:44:00.956Z,967.1685
2022-09-28T07:45:01.132Z,967.2603
2022-09-28T07:47:00.362Z,967.3424
2022-09-28T07:48:00.603Z,967.1712
2022-09-28T07:49:00.660Z,967.1284
2022-09-28T07:50:00.820Z,967.1176
2022-09-28T07:51:00.945Z,967.1719
2022-09-28T07:52:01.090Z,967.2798
2022-09-28T07:53:01.229Z,967.2004
2022-09-28T07:54:00.399Z,967.3047
2022-09-28T07:55:06.010Z,967.1877
2022-09-28T07:56:00.669Z,967.1654
2022-09-28T07:57:00.833Z,967.2098
2022-09-28T07:58:00.979Z,967.2383
2022-09-28T07:59:01.148Z,967.1213
2022-09-28T08:00:00.276Z,967.1561
2022-09-28T08:01:00.479Z,967.2924
2022-09-28T08:02:00.611Z,967.2145
2022-09-28T08:03:00.705Z,967.1288
2022-09-28T08:04:00.867Z,967.2179
2022-09-28T08:05:01.020Z,967.3642
2022-09-28T08:06:01.156Z,967.0624
2022-09-28T08:07:00.305Z,967.081
2022-09-28T08:08:00.441Z,967.2559
2022-09-28T08:09:00.608Z,967.0273
2022-09-28T08:10:00.769Z,967.0906
2022-09-28T08:11:00.935Z,967.1316
2022-09-28T08:12:01.044Z,967.0816
2022-09-28T08:13:02.818Z,967.0745
2022-09-28T08:14:00.331Z,967.2049
2022-09-28T08:15:00.511Z,967.1093
2022-09-28T08:16:00.640Z,967.154
2022-09-28T08:17:00.788Z,967.1003
2022-09-28T08:18:02.847Z,967.1664
2022-09-28T08:19:01.085Z,967.0745
2022-09-28T08:20:01.259Z,967.0698
2022-09-28T08:21:00.373Z,967.0412
2022-09-28T08:22:00.532Z,967.0698
2022-09-28T08:23:00.687Z,967.31
2022-09-28T08:24:00.858Z,967.0117
2022-09-28T08:25:01.005Z,967.0717
2022-09-28T08:26:01.127Z,967.1164
2022-09-28T08:27:00.267Z,967.1664
2022-09-28T08:28:00.412Z,967.0807
2022-09-28T08:29:00.566Z,967.1388
2022-09-28T08:30:00.736Z,967.1192
2022-09-28T08:31:00.969Z,967.1701
2022-09-28T08:32:01.873Z,967.2559
2022-09-28T08:33:01.156Z,967.031
2022-09-28T08:34:00.302Z,967.1096
2022-09-28T08:35:00.474Z,967.0819
2022-09-28T08:36:00.596Z,967.1962
2022-09-28T08:37:00.742Z,967.1676
2022-09-28T08:38:00.908Z,967.0562
2022-09-28T08:39:01.052Z,967.419
2022-09-28T08:40:01.227Z,967.4538
2022-09-28T08:41:00.396Z,967.0785
2022-09-28T08:42:00.499Z,967.0661
2022-09-28T08:43:00.648Z,967.2884
2022-09-28T08:44:00.791Z,967.2598
2022-09-28T08:45:00.954Z,967.3294
2022-09-28T08:46:01.162Z,967.2946
2022-09-28T08:47:01.233Z,967.3941
2022-09-28T08:48:00.386Z,967.2946
2022-09-28T08:49:23.863Z,967.4065
2022-09-28T08:50:00.706Z,967.3294
2022-09-28T08:51:00.827Z,967.3642
2022-09-28T08:52:00.985Z,967.1704
2022-09-28T08:53:01.140Z,967.1481
2022-09-28T08:54:00.276Z,967.231
2022-09-28T08:55:00.441Z,967.1987
2022-09-28T08:56:00.607Z,967.2344
2022-09-28T08:57:00.726Z,967.2683
2022-09-28T08:58:00.862Z,967.1512
2022-09-28T08:59:01.014Z,967.127
2022-09-28T09:00:01.169Z,967.0984
2022-09-28T09:01:00.381Z,967.0698
2022-09-28T09:02:00.521Z,967.2127
2022-09-28T09:03:00.661Z,967.1351
2022-09-28T09:04:00.740Z,967.0698
2022-09-28T09:05:00.901Z,967.127
2022-09-28T09:06:01.052Z,967.2814
2022-09-28T09:07:01.181Z,967.126
2022-09-28T09:08:00.344Z,967.1456
2022-09-28T09:09:00.495Z,967.1804
2022-09-28T09:10:00.643Z,967.2948
2022-09-28T09:11:00.818Z,967.141
2022-09-28T09:12:01.000Z,967.141
2022-09-28T09:13:01.125Z,967.141
2022-09-28T09:14:01.236Z,967.1124
2022-09-28T09:15:00.383Z,967.1696
2022-09-28T09:16:00.556Z,967.2839
2022-09-28T09:17:01.123Z,967.2839
2022-09-28T09:18:00.834Z,967.4291
2022-09-28T09:19:01.003Z,967.5326
2022-09-28T09:20:01.137Z,967.6184
2022-09-28T09:21:00.318Z,967.596
2022-09-28T09:22:00.443Z,967.6657
2022-09-28T09:23:00.596Z,967.7238
2022-09-28T09:24:00.738Z,967.688
2022-09-28T09:25:00.897Z,967.6756
2022-09-28T09:26:01.053Z,967.6292
2022-09-28T09:27:01.205Z,967.7203
2022-09-28T09:28:00.330Z,967.6917
2022-09-28T09:29:00.465Z,967.8695
2022-09-28T09:30:00.613Z,967.6917
2022-09-28T09:31:00.852Z,967.6578
2022-09-28T09:32:00.921Z,967.8231
2022-09-28T09:33:01.064Z,967.8044
2022-09-28T09:34:01.217Z,967.7758
2022-09-28T09:35:00.322Z,967.673
2022-09-28T09:36:00.478Z,967.6864
2022-09-28T09:37:00.643Z,967.8471
2022-09-28T09:38:00.811Z,967.6818
2022-09-28T09:39:00.924Z,967.7229
2022-09-28T09:40:01.083Z,967.7773
2022-09-28T09:41:01.352Z,967.7674
2022-09-28T09:42:00.378Z,967.7799
2022-09-28T09:43:00.553Z,967.9299
2022-09-28T09:44:00.672Z,967.768
2022-09-28T09:45:00.835Z,967.9423
2022-09-28T09:46:01.023Z,967.7427
2022-09-28T09:47:01.127Z,967.7714
2022-09-28T09:48:00.285Z,967.8572
2022-09-28T09:49:00.426Z,967.8
2022-09-28T09:50:04.077Z,967.8822
2022-09-28T09:51:00.726Z,967.9618
2022-09-28T09:52:00.870Z,967.8948
2022-09-28T09:53:01.032Z,967.868
2022-09-28T09:54:01.175Z,967.8726
2022-09-28T09:55:00.323Z,967.9048
2022-09-28T09:56:00.468Z,967.9844
2022-09-28T09:57:00.629Z,968.0121
2022-09-28T09:58:00.788Z,967.9745
2022-09-28T09:59:00.908Z,968.1613
2022-09-28T10:00:01.054Z,968.1425
2022-09-28T10:01:01.290Z,968.0575
2022-09-28T10:02:00.408Z,968.2086
2022-09-28T10:03:00.634Z,968.0763
2022-09-28T10:04:00.647Z,968.1586
2022-09-28T10:05:00.803Z,968.1237
2022-09-28T10:06:00.946Z,968.1327
2022-09-28T10:07:01.102Z,968.0969
2022-09-28T10:08:01.267Z,967.9995
2022-09-28T10:09:00.410Z,968.0156
2022-09-28T10:10:00.552Z,968.1613
2022-09-28T10:11:00.705Z,968.0093
2022-09-28T10:12:00.860Z,967.9618
2022-09-28T10:13:01.000Z,968.1299
2022-09-28T10:14:01.170Z,968.0288
2022-09-28T10:15:00.288Z,968.3079
2022-09-28T10:16:00.436Z,968.3079
2022-09-28T10:17:00.732Z,968.0502
2022-09-28T10:18:00.728Z,968.2121
2022-09-28T10:19:00.900Z,968.1549
2022-09-28T10:20:01.125Z,968.0644
2022-09-28T10:21:01.181Z,967.9901
2022-09-28T10:22:00.317Z,968.0224
2022-09-28T10:23:00.489Z,967.9651
2022-09-28T10:24:00.606Z,968.0644
2022-09-28T10:25:00.775Z,968.0151
2022-09-28T10:26:00.910Z,968.1547
2022-09-28T10:27:01.088Z,968.0401
2022-09-28T10:28:01.199Z,968.127
2022-09-28T10:29:00.333Z,968.1646
2022-09-28T10:30:00.500Z,968.0644
2022-09-28T10:31:00.762Z,968.179
2022-09-28T10:32:00.776Z,968.1182
2022-09-28T10:33:00.933Z,968.2408
2022-09-28T10:34:01.128Z,968.1549
2022-09-28T10:35:01.263Z,968.1772
2022-09-28T10:36:00.381Z,968.1361
2022-09-28T10:37:00.537Z,968.3151
2022-09-28T10:38:00.692Z,968.4126
2022-09-28T10:39:00.864Z,968.2676
2022-09-28T10:40:00.986Z,968.4126
2022-09-28T10:41:01.282Z,968.4126
2022-09-28T10:42:00.310Z,968.1692
2022-09-28T10:43:00.442Z,968.1852
2022-09-28T10:44:00.648Z,968.2094
2022-09-28T10:45:00.732Z,968.1995
2022-09-28T10:46:00.976Z,968.2218
2022-09-28T10:47:01.032Z,968.34
2022-09-28T10:48:01.174Z,968.3561
2022-09-28T10:49:00.328Z,968.3651
2022-09-28T10:50:00.452Z,968.6712
2022-09-28T10:51:00.602Z,968.4967
2022-09-28T10:52:00.757Z,968.5665
2022-09-28T10:53:00.901Z,968.2363
2022-09-28T10:54:01.074Z,968.255
2022-09-28T10:55:01.224Z,968.3463
2022-09-28T10:56:00.348Z,968.3562
2022-09-28T10:57:00.490Z,968.2989
2022-09-28T10:58:00.623Z,968.4135
2022-09-28T10:59:00.789Z,968.4967
2022-09-28T11:00:00.893Z,968.5665
2022-09-28T11:01:01.092Z,968.5459
2022-09-28T11:02:01.279Z,968.3463
2022-09-28T11:03:00.420Z,968.4099
2022-09-28T11:04:00.475Z,968.3114
2022-09-28T11:05:00.634Z,968.5066
2022-09-28T11:06:00.771Z,968.3884
2022-09-28T11:07:01.015Z,968.3275
2022-09-28T11:08:01.065Z,968.4287
2022-09-28T11:09:01.206Z,968.3561
2022-09-28T11:10:00.367Z,968.3561
2022-09-28T11:11:00.514Z,968.3919
2022-09-28T11:12:00.650Z,968.3561
2022-09-28T11:13:00.792Z,968.1914
2022-09-28T11:14:00.953Z,968.34
2022-09-28T11:15:01.125Z,968.3884
2022-09-28T11:16:01.236Z,968.4493
2022-09-28T11:17:00.443Z,968.3624
2022-09-28T11:18:00.535Z,968.3597
2022-09-28T11:19:00.680Z,968.4071
2022-09-28T11:20:00.844Z,968.4869
2022-09-28T11:21:01.002Z,968.4905
2022-09-28T11:22:01.125Z,968.5352
2022-09-28T11:23:00.275Z,968.6239
2022-09-28T11:24:00.417Z,968.4134
2022-09-28T11:25:00.569Z,968.486
2022-09-28T11:26:00.740Z,968.6006
2022-09-28T11:27:00.881Z,968.5281
2022-09-28T11:28:01.027Z,968.5146
2022-09-28T11:29:01.184Z,968.4206
2022-09-28T11:30:00.299Z,968.614
2022-09-28T11:31:00.537Z,968.5083
2022-09-28T11:32:00.605Z,968.6006
2022-09-28T11:33:00.752Z,968.6785
2022-09-28T11:34:00.896Z,968.5925
2022-09-28T11:35:01.048Z,968.6212
2022-09-28T11:36:01.216Z,968.6875
2022-09-28T11:37:01.883Z,968.649
2022-09-28T11:38:00.486Z,968.7188
2022-09-28T11:39:00.638Z,968.7188
2022-09-28T11:40:00.787Z,968.7762
2022-09-28T11:41:01.022Z,968.7824
2022-09-28T11:42:01.120Z,968.7412
2022-09-28T11:43:01.330Z,968.7215
2022-09-28T11:44:00.394Z,968.7538
2022-09-28T11:45:00.545Z,968.6589
2022-09-28T11:46:00.760Z,968.7349
2022-09-28T11:47:00.858Z,968.7163